Time;durP1;ratioP1;P1;durP2;ratioP2;P2;SDS_P1;SDS_P2;PMS_P1;PMS_P2;Temp;Humidity;BMP_temperature;BMP_pressure;BME280_temperature;BME280_humidity;BME280_pressure;Samples;Min_cycle;Max_cycle;Signal;HPM_P1;HPM_P2
2023/03/21 00:01:04;;;;;;;5.90;4.60;;;8.20;44.60;;;;;;5011401;28;46413;-79
2023/03/21 00:03:32;;;;;;;8.73;5.23;;;8.20;44.70;;;;;;5014941;28;46325;-78
2023/03/21 00:05:58;;;;;;;8.57;4.70;;;8.10;44.50;;;;;;5015051;28;46367;-79
2023/03/21 00:08:25;;;;;;;8.83;4.40;;;8.10;44.70;;;;;;5017065;28;46872;-79
2023/03/21 00:10:58;;;;;;;7.67;4.57;;;8.10;44.80;;;;;;5017599;28;46432;-80
2023/03/21 00:13:25;;;;;;;7.30;5.43;;;8.10;44.80;;;;;;5018311;28;46354;-80
2023/03/21 00:15:53;;;;;;;6.20;4.40;;;8.10;44.70;;;;;;5014773;28;46698;-79
2023/03/21 00:18:21;;;;;;;6.53;4.50;;;8.20;44.80;;;;;;5015732;28;46618;-79
2023/03/21 00:21:02;;;;;;;7.23;4.00;;;8.20;44.70;;;;;;5014608;28;46607;-79
2023/03/21 00:23:30;;;;;;;8.37;5.17;;;8.30;44.80;;;;;;5012884;28;46752;-78
2023/03/21 00:25:56;;;;;;;6.87;4.30;;;8.30;44.70;;;;;;5014728;28;46563;-79
2023/03/21 00:28:22;;;;;;;8.40;5.50;;;8.30;44.60;;;;;;5018701;28;46303;-80
2023/03/21 00:30:49;;;;;;;7.23;5.07;;;8.40;44.60;;;;;;5013440;28;47354;-82
2023/03/21 00:33:14;;;;;;;7.80;4.87;;;8.40;44.30;;;;;;5013074;28;46597;-79
2023/03/21 00:35:43;;;;;;;7.30;4.77;;;8.40;44.30;;;;;;5016148;28;46290;-78
2023/03/21 00:38:09;;;;;;;9.60;5.20;;;8.50;44.40;;;;;;5012442;28;46606;-78
2023/03/21 00:40:35;;;;;;;6.80;4.80;;;8.40;44.20;;;;;;5012409;28;46367;-80
2023/03/21 00:43:00;;;;;;;9.20;5.60;;;8.50;44.20;;;;;;5011715;28;46530;-79
2023/03/21 00:45:26;;;;;;;10.97;4.80;;;8.50;44.20;;;;;;5013620;28;46364;-81
2023/03/21 00:47:52;;;;;;;11.27;4.77;;;8.50;44.10;;;;;;5012008;28;46696;-80
2023/03/21 00:50:18;;;;;;;7.27;5.30;;;8.50;44.30;;;;;;5015598;28;46393;-82
2023/03/21 00:52:43;;;;;;;5.93;4.40;;;8.60;44.40;;;;;;5018567;28;46439;-83
2023/03/21 00:55:13;;;;;;;7.77;5.37;;;8.60;44.40;;;;;;5017629;28;46339;-82
2023/03/21 00:57:39;;;;;;;6.13;4.53;;;8.60;44.70;;;;;;5013768;28;46400;-82
2023/03/21 01:00:06;;;;;;;6.50;4.50;;;8.60;44.80;;;;;;5012484;28;46691;-80
2023/03/21 01:02:32;;;;;;;8.03;5.20;;;8.60;44.90;;;;;;5013923;28;46514;-78
2023/03/21 01:04:58;;;;;;;7.10;4.70;;;8.60;45.10;;;;;;5014031;28;46664;-79
2023/03/21 01:07:23;;;;;;;6.13;4.73;;;8.50;45.20;;;;;;5009431;28;46349;-80
2023/03/21 01:09:50;;;;;;;8.03;4.40;;;8.50;45.30;;;;;;5013351;28;46518;-79
2023/03/21 01:12:15;;;;;;;6.83;5.00;;;8.60;45.50;;;;;;5017729;28;46608;-81
2023/03/21 01:14:41;;;;;;;6.70;5.00;;;8.60;45.60;;;;;;5017360;28;47241;-81
2023/03/21 01:17:07;;;;;;;7.40;4.90;;;8.60;45.60;;;;;;5012044;28;46383;-79
2023/03/21 01:19:33;;;;;;;7.13;4.93;;;8.60;45.60;;;;;;5015808;28;46379;-79
2023/03/21 01:21:59;;;;;;;6.80;4.80;;;8.60;45.60;;;;;;5013188;28;46599;-80
2023/03/21 01:24:24;;;;;;;6.90;4.80;;;8.60;45.70;;;;;;5014525;28;46271;-79
2023/03/21 01:26:50;;;;;;;7.53;4.83;;;8.70;45.90;;;;;;5014230;28;47593;-79
2023/03/21 01:29:15;;;;;;;6.67;4.90;;;8.60;45.90;;;;;;5015993;28;46448;-81
2023/03/21 01:31:41;;;;;;;8.70;5.10;;;8.60;46.00;;;;;;5012763;28;45855;-79
2023/03/21 01:34:07;;;;;;;6.37;5.17;;;8.60;46.10;;;;;;5014963;28;46916;-79
2023/03/21 01:36:32;;;;;;;8.07;5.20;;;8.60;46.10;;;;;;5016514;28;46810;-79
2023/03/21 01:38:58;;;;;;;9.20;5.57;;;8.70;46.10;;;;;;5015137;28;46933;-81
2023/03/21 01:41:30;;;;;;;9.83;4.50;;;8.70;46.00;;;;;;5009676;28;46554;-80
2023/03/21 01:43:56;;;;;;;6.60;4.80;;;8.70;46.00;;;;;;5016458;28;46527;-80
2023/03/21 01:46:36;;;;;;;7.43;5.30;;;8.70;46.20;;;;;;5015276;28;46481;-81
2023/03/21 01:49:14;;;;;;;7.07;4.50;;;8.60;45.90;;;;;;5011780;28;46533;-80
2023/03/21 01:52:01;;;;;;;8.00;5.60;;;8.60;45.90;;;;;;5011100;28;46393;-80
2023/03/21 01:54:31;;;;;;;7.13;5.30;;;8.70;46.00;;;;;;5012815;28;46707;-80
2023/03/21 01:57:01;;;;;;;5.63;4.00;;;8.70;45.90;;;;;;5012072;28;47029;-78
2023/03/21 01:59:44;;;;;;;8.20;4.60;;;8.70;45.80;;;;;;5011892;28;46466;-80
2023/03/21 02:02:24;;;;;;;7.37;5.07;;;8.80;45.80;;;;;;5012635;28;46634;-80
2023/03/21 02:04:54;;;;;;;9.10;4.47;;;8.80;45.60;;;;;;5016596;28;46565;-81
2023/03/21 02:07:28;;;;;;;8.00;5.00;;;8.80;45.90;;;;;;5022790;28;46367;-79
2023/03/21 02:09:54;;;;;;;7.27;4.70;;;8.80;45.70;;;;;;5055957;28;45865;-82
2023/03/21 02:12:20;;;;;;;6.40;4.50;;;8.80;45.70;;;;;;5020773;28;45899;-80
2023/03/21 02:14:48;;;;;;;9.53;4.83;;;8.80;45.80;;;;;;5006944;28;46122;-79
2023/03/21 02:17:37;;;;;;;7.60;4.50;;;8.70;46.00;;;;;;5010659;28;46416;-80
2023/03/21 02:20:26;;;;;;;6.87;4.87;;;8.70;46.10;;;;;;5014976;28;46301;-80
2023/03/21 02:23:03;;;;;;;7.27;4.87;;;8.70;46.20;;;;;;5011198;28;47252;-80
2023/03/21 02:26:01;;;;;;;7.63;5.43;;;8.60;46.10;;;;;;5009632;28;46505;-78
2023/03/21 02:28:30;;;;;;;5.77;4.30;;;8.70;46.10;;;;;;5010785;28;46438;-80
2023/03/21 02:31:05;;;;;;;7.70;4.77;;;8.70;45.90;;;;;;5011206;28;46934;-82
2023/03/21 02:33:33;;;;;;;8.50;5.33;;;8.70;45.80;;;;;;5013402;28;46506;-81
2023/03/21 02:36:27;;;;;;;6.43;5.00;;;8.70;45.90;;;;;;5016709;28;46621;-83
2023/03/21 02:39:07;;;;;;;8.40;5.10;;;8.70;46.00;;;;;;5015382;28;46487;-81
2023/03/21 02:41:57;;;;;;;9.60;5.73;;;8.70;46.90;;;;;;5016080;28;46266;-83
2023/03/21 02:44:36;;;;;;;13.73;5.43;;;8.80;45.70;;;;;;5014067;28;46257;-81
2023/03/21 02:47:08;;;;;;;7.83;4.83;;;8.80;45.60;;;;;;5008648;28;46560;-82
2023/03/21 02:50:01;;;;;;;7.50;5.50;;;8.80;45.50;;;;;;5010525;28;46647;-83
2023/03/21 02:52:30;;;;;;;7.50;5.40;;;8.80;45.70;;;;;;5012283;28;46518;-81
2023/03/21 02:54:58;;;;;;;10.20;4.63;;;8.80;45.60;;;;;;5012173;28;46474;-82
2023/03/21 02:57:24;;;;;;;8.07;5.00;;;8.80;46.00;;;;;;5013872;28;46615;-82
2023/03/21 02:59:51;;;;;;;8.70;4.93;;;8.80;45.70;;;;;;5013797;28;47056;-82
2023/03/21 03:02:22;;;;;;;8.83;5.40;;;8.80;45.60;;;;;;5012119;28;46553;-81
2023/03/21 03:04:47;;;;;;;7.40;5.37;;;8.80;45.70;;;;;;5010208;28;46512;-81
2023/03/21 03:07:29;;;;;;;6.50;5.17;;;8.80;45.90;;;;;;5010343;28;46440;-84
2023/03/21 03:10:09;;;;;;;6.73;4.67;;;8.80;46.00;;;;;;5014253;28;46444;-83
2023/03/21 03:12:41;;;;;;;8.23;4.90;;;8.80;46.10;;;;;;5014707;28;46450;-81
2023/03/21 03:15:28;;;;;;;7.77;5.33;;;8.80;45.80;;;;;;5012742;28;46189;-82
2023/03/21 03:18:05;;;;;;;10.47;4.87;;;8.80;45.80;;;;;;5012643;28;46555;-81
2023/03/21 03:21:08;;;;;;;8.40;5.10;;;8.80;45.50;;;;;;5012478;28;47265;-80
2023/03/21 03:23:56;;;;;;;8.17;4.87;;;8.90;45.60;;;;;;4995956;28;45989;-81
2023/03/21 03:26:32;;;;;;;9.20;4.93;;;8.80;45.50;;;;;;5014483;28;45814;-82
2023/03/21 03:29:03;;;;;;;9.60;5.13;;;8.80;45.50;;;;;;5012243;28;46483;-80
2023/03/21 03:31:36;;;;;;;7.03;5.10;;;8.80;45.50;;;;;;5007228;28;46649;-82
2023/03/21 03:34:08;;;;;;;9.10;5.30;;;8.80;45.50;;;;;;5009930;28;46347;-83
2023/03/21 03:36:40;;;;;;;7.77;5.30;;;8.80;45.60;;;;;;5015655;28;46481;-78
2023/03/21 03:39:10;;;;;;;6.83;4.63;;;8.80;45.70;;;;;;5013221;28;46633;-82
2023/03/21 03:41:46;;;;;;;9.27;5.50;;;8.80;45.60;;;;;;5013899;28;46495;-82
2023/03/21 03:44:12;;;;;;;7.70;5.43;;;8.90;45.50;;;;;;5013486;28;45762;-82
2023/03/21 03:46:55;;;;;;;9.33;5.50;;;8.80;45.50;;;;;;5013035;28;45726;-82
2023/03/21 03:49:24;;;;;;;9.67;5.30;;;8.80;45.60;;;;;;5049170;28;46403;-82
2023/03/21 03:52:05;;;;;;;8.97;5.50;;;8.80;45.60;;;;;;5011823;28;46414;-81
2023/03/21 03:54:45;;;;;;;6.80;5.00;;;8.80;45.70;;;;;;5011052;28;46659;-78
2023/03/21 03:57:12;;;;;;;6.77;5.03;;;8.70;45.70;;;;;;5013839;28;46470;-81
2023/03/21 03:59:40;;;;;;;12.53;5.40;;;8.80;46.00;;;;;;5012926;28;46357;-83
2023/03/21 04:02:06;;;;;;;11.20;6.87;;;8.70;46.00;;;;;;5012920;28;47419;-80
2023/03/21 04:04:32;;;;;;;8.77;5.97;;;8.80;46.00;;;;;;5009982;28;46214;-81
2023/03/21 04:06:58;;;;;;;8.40;5.10;;;8.70;45.90;;;;;;5009857;28;46029;-80
2023/03/21 04:09:27;;;;;;;8.30;5.53;;;8.70;46.00;;;;;;5013502;28;46399;-81
2023/03/21 04:11:53;;;;;;;7.63;6.00;;;8.80;46.10;;;;;;5009639;28;46954;-80
2023/03/21 04:14:18;;;;;;;10.40;5.33;;;8.70;46.10;;;;;;5014336;28;45823;-82
2023/03/21 04:16:44;;;;;;;7.03;5.03;;;8.70;46.20;;;;;;5012869;28;46366;-81
2023/03/21 04:19:10;;;;;;;6.50;4.60;;;8.70;46.30;;;;;;5007796;28;46436;-83
2023/03/21 04:21:36;;;;;;;7.90;5.23;;;8.70;46.20;;;;;;5006423;28;46781;-83
2023/03/21 04:24:01;;;;;;;6.17;4.53;;;8.70;46.30;;;;;;5010571;28;46721;-82
2023/03/21 04:26:31;;;;;;;8.97;6.00;;;8.70;46.20;;;;;;5012413;28;46308;-78
2023/03/21 04:28:59;;;;;;;7.60;5.17;;;8.60;46.40;;;;;;5010425;28;46501;-83
2023/03/21 04:31:27;;;;;;;6.70;5.03;;;8.60;46.70;;;;;;5010195;28;46583;-83
2023/03/21 04:33:54;;;;;;;9.07;5.40;;;8.50;46.60;;;;;;5011882;28;46402;-81
2023/03/21 04:36:26;;;;;;;9.70;5.20;;;8.50;46.60;;;;;;5009668;28;46413;-80
2023/03/21 04:38:51;;;;;;;8.23;5.80;;;8.60;46.60;;;;;;5016177;28;46322;-81
2023/03/21 04:41:17;;;;;;;8.63;5.70;;;8.70;46.40;;;;;;5013250;28;46403;-81
2023/03/21 04:43:43;;;;;;;12.20;6.20;;;8.70;46.40;;;;;;5008150;28;47519;-79
2023/03/21 04:46:09;;;;;;;8.37;5.50;;;8.70;46.50;;;;;;5015508;28;46949;-81
2023/03/21 04:48:35;;;;;;;11.60;6.17;;;8.70;46.40;;;;;;5011982;28;46482;-83
2023/03/21 04:51:01;;;;;;;7.73;5.53;;;8.70;47.80;;;;;;5014395;28;46964;-82
2023/03/21 04:53:26;;;;;;;8.17;5.63;;;8.70;46.60;;;;;;5016327;28;46479;-81
2023/03/21 04:55:52;;;;;;;9.70;5.50;;;8.70;46.90;;;;;;5013655;28;46435;-81
2023/03/21 04:58:19;;;;;;;8.57;5.07;;;8.70;47.00;;;;;;5014926;28;46542;-82
2023/03/21 05:00:45;;;;;;;6.70;4.57;;;8.60;47.00;;;;;;5012611;28;46391;-80
2023/03/21 05:03:14;;;;;;;7.77;4.73;;;8.60;47.00;;;;;;5014377;28;46352;-82
2023/03/21 05:05:40;;;;;;;6.30;5.17;;;8.60;47.20;;;;;;5012485;28;45788;-82
2023/03/21 05:08:05;;;;;;;9.10;5.53;;;8.60;47.40;;;;;;5044418;28;46284;-81
2023/03/21 05:10:32;;;;;;;9.00;5.27;;;8.60;47.50;;;;;;5010643;28;48416;-82
2023/03/21 05:12:58;;;;;;;6.77;5.33;;;8.60;47.50;;;;;;5013095;28;46411;-82
2023/03/21 05:15:24;;;;;;;10.47;5.60;;;8.60;47.50;;;;;;5015348;28;47078;-81
2023/03/21 05:17:49;;;;;;;8.07;5.90;;;8.60;47.50;;;;;;5018081;28;46347;-81
2023/03/21 05:20:16;;;;;;;7.40;5.40;;;8.60;47.50;;;;;;5013946;28;48285;-81
2023/03/21 05:22:45;;;;;;;7.30;5.47;;;8.60;47.60;;;;;;5016278;28;46418;-82
2023/03/21 05:25:12;;;;;;;8.60;5.77;;;8.60;47.70;;;;;;5010894;28;46230;-81
2023/03/21 05:27:43;;;;;;;7.47;5.43;;;8.60;47.90;;;;;;5012592;28;46506;-81
2023/03/21 05:30:16;;;;;;;8.27;5.93;;;8.60;47.90;;;;;;5019102;28;48439;-81
2023/03/21 05:32:41;;;;;;;8.10;6.10;;;8.60;47.90;;;;;;5012231;28;46336;-82
2023/03/21 05:35:07;;;;;;;11.73;6.97;;;8.70;48.00;;;;;;5010290;28;46686;-81
2023/03/21 05:37:33;;;;;;;11.43;6.33;;;8.70;47.80;;;;;;5016838;28;46766;-81
2023/03/21 05:39:58;;;;;;;14.03;6.53;;;8.70;47.70;;;;;;5011530;28;46658;-79
2023/03/21 05:42:25;;;;;;;11.87;7.97;;;8.70;47.70;;;;;;5015271;28;46994;-85
2023/03/21 05:44:50;;;;;;;10.93;6.73;;;8.70;47.70;;;;;;5012523;28;46685;-84
2023/03/21 05:47:17;;;;;;;10.50;6.63;;;8.80;47.80;;;;;;5011203;28;46504;-83
2023/03/21 05:49:43;;;;;;;7.83;6.13;;;8.80;47.80;;;;;;5012790;28;46823;-83
2023/03/21 05:52:09;;;;;;;9.83;6.83;;;8.90;47.80;;;;;;5014521;28;46390;-81
2023/03/21 05:54:35;;;;;;;11.20;6.93;;;8.80;47.70;;;;;;5018319;28;46524;-82
2023/03/21 05:57:01;;;;;;;10.53;6.70;;;8.90;47.80;;;;;;5017635;28;46308;-82
2023/03/21 05:59:27;;;;;;;12.63;6.43;;;8.90;47.80;;;;;;5012551;28;46273;-81
2023/03/21 06:01:52;;;;;;;9.50;5.97;;;8.90;47.70;;;;;;5015309;28;46309;-82
2023/03/21 06:04:18;;;;;;;10.97;6.27;;;9.00;47.60;;;;;;5013382;28;45891;-84
2023/03/21 06:06:43;;;;;;;9.97;6.57;;;9.00;47.30;;;;;;5011591;28;46237;-82
2023/03/21 06:09:09;;;;;;;9.70;7.37;;;9.10;47.30;;;;;;5011403;28;46517;-81
2023/03/21 06:11:37;;;;;;;10.13;5.50;;;9.10;47.20;;;;;;5009258;28;46659;-81
2023/03/21 06:14:02;;;;;;;7.57;5.53;;;9.20;47.10;;;;;;5014880;28;46380;-82
2023/03/21 06:16:28;;;;;;;8.20;6.03;;;9.20;47.00;;;;;;5012699;28;46368;-83
2023/03/21 06:18:54;;;;;;;8.70;6.17;;;9.20;46.90;;;;;;5011291;28;46127;-83
2023/03/21 06:21:21;;;;;;;10.47;7.03;;;9.30;47.00;;;;;;5011780;28;46306;-81
2023/03/21 06:23:47;;;;;;;8.40;5.80;;;9.30;47.00;;;;;;5012585;28;46643;-81
2023/03/21 06:26:12;;;;;;;7.90;5.30;;;9.40;47.00;;;;;;5010382;28;46564;-82
2023/03/21 06:28:39;;;;;;;9.80;6.57;;;9.30;46.90;;;;;;5020282;28;47081;-82
2023/03/21 06:31:05;;;;;;;10.97;6.90;;;9.30;46.90;;;;;;5026725;28;45835;-82
2023/03/21 06:33:30;;;;;;;10.87;7.33;;;9.40;47.00;;;;;;5024100;28;46332;-82
2023/03/21 06:35:57;;;;;;;11.07;6.80;;;9.50;46.90;;;;;;5018687;28;46614;-83
2023/03/21 06:38:24;;;;;;;10.10;6.23;;;9.50;46.80;;;;;;5013909;28;46694;-82
2023/03/21 06:40:50;;;;;;;9.43;5.80;;;9.60;46.60;;;;;;5010551;28;46499;-81
2023/03/21 06:43:16;;;;;;;10.40;6.57;;;9.60;46.50;;;;;;5010223;28;46378;-82
2023/03/21 06:45:42;;;;;;;8.23;6.17;;;9.70;46.80;;;;;;5012974;28;46582;-81
2023/03/21 06:48:08;;;;;;;8.20;5.37;;;9.70;46.60;;;;;;5044580;28;47286;-81
2023/03/21 06:50:34;;;;;;;10.10;6.20;;;9.80;46.60;;;;;;5011208;28;46168;-81
2023/03/21 06:52:59;;;;;;;8.23;5.93;;;9.80;46.50;;;;;;5012367;28;46377;-81
2023/03/21 06:55:27;;;;;;;8.57;5.83;;;9.90;46.50;;;;;;5010196;28;45814;-80
2023/03/21 06:57:54;;;;;;;8.33;6.30;;;10.00;45.50;;;;;;5011717;28;46644;-81
2023/03/21 07:00:20;;;;;;;10.30;7.07;;;10.00;45.30;;;;;;5009664;28;46202;-81
2023/03/21 07:02:46;;;;;;;9.30;6.93;;;10.10;45.10;;;;;;5013346;28;45872;-83
2023/03/21 07:05:11;;;;;;;11.23;7.50;;;10.10;46.10;;;;;;5011877;28;46440;-81
2023/03/21 07:07:38;;;;;;;14.97;7.23;;;10.20;44.90;;;;;;5008362;28;46670;-79
2023/03/21 07:10:08;;;;;;;11.30;7.27;;;10.30;44.90;;;;;;5007116;28;46439;-80
2023/03/21 07:12:34;;;;;;;13.00;7.77;;;10.30;45.00;;;;;;5010307;28;47511;-80
2023/03/21 07:15:01;;;;;;;9.97;7.40;;;10.40;45.10;;;;;;5012451;28;46464;-79
2023/03/21 07:17:27;;;;;;;10.50;6.53;;;10.40;45.00;;;;;;5009511;28;46691;-81
2023/03/21 07:19:53;;;;;;;12.73;7.87;;;10.50;45.00;;;;;;5006828;28;46715;-80
2023/03/21 07:22:18;;;;;;;10.80;7.80;;;10.60;44.90;;;;;;5013072;28;46820;-81
2023/03/21 07:24:47;;;;;;;30.60;20.97;;;10.60;44.80;;;;;;5013332;28;46404;-78
2023/03/21 07:27:13;;;;;;;82.97;46.87;;;10.70;44.70;;;;;;5011436;28;49182;-80
2023/03/21 07:29:39;;;;;;;23.27;14.80;;;10.80;44.60;;;;;;5012140;28;46325;-81
2023/03/21 07:32:05;;;;;;;8.70;6.00;;;10.90;44.20;;;;;;5012803;28;45977;-78
2023/03/21 07:34:32;;;;;;;14.30;7.80;;;11.00;43.90;;;;;;5008833;28;46431;-79
2023/03/21 07:36:58;;;;;;;44.50;24.40;;;11.00;43.90;;;;;;5009132;28;47294;-80
2023/03/21 07:39:24;;;;;;;37.40;22.67;;;11.10;43.90;;;;;;5013391;28;46468;-80
2023/03/21 07:41:50;;;;;;;14.37;9.90;;;11.20;43.70;;;;;;5011184;28;46455;-80
2023/03/21 07:44:16;;;;;;;8.33;6.23;;;11.30;43.70;;;;;;5010547;28;46458;-80
2023/03/21 07:46:41;;;;;;;8.40;6.30;;;11.40;43.50;;;;;;5012326;28;47497;-80
2023/03/21 07:49:07;;;;;;;21.50;14.23;;;11.50;43.40;;;;;;5014393;28;46461;-80
2023/03/21 07:51:34;;;;;;;13.60;9.00;;;11.60;43.10;;;;;;5016462;28;46519;-80
2023/03/21 07:54:00;;;;;;;14.67;8.50;;;11.60;42.70;;;;;;5010340;28;46419;-80
2023/03/21 07:56:27;;;;;;;11.77;6.87;;;11.70;42.60;;;;;;5011587;28;47043;-81
2023/03/21 07:58:52;;;;;;;10.90;5.93;;;11.80;42.40;;;;;;5011357;28;46409;-80
2023/03/21 08:01:18;;;;;;;10.37;6.37;;;11.90;42.20;;;;;;5012076;28;46432;-81
2023/03/21 08:03:43;;;;;;;6.70;5.07;;;11.90;41.90;;;;;;5011579;28;46279;-81
2023/03/21 08:06:09;;;;;;;8.83;5.57;;;12.00;41.90;;;;;;5009929;28;46483;-82
2023/03/21 08:08:36;;;;;;;8.30;5.27;;;12.10;41.70;;;;;;5009733;28;46986;-86
2023/03/21 08:11:03;;;;;;;13.23;5.93;;;12.30;41.50;;;;;;5010857;28;46430;-80
2023/03/21 08:13:28;;;;;;;14.00;6.90;;;12.40;40.80;;;;;;5008433;28;46384;-81
2023/03/21 08:15:54;;;;;;;10.40;5.73;;;12.50;40.70;;;;;;5009968;28;46423;-81
2023/03/21 08:18:20;;;;;;;9.13;5.90;;;12.60;40.80;;;;;;5011423;28;46407;-81
2023/03/21 08:20:50;;;;;;;10.53;5.90;;;12.70;40.70;;;;;;5013766;28;46355;-81
2023/03/21 08:23:16;;;;;;;8.97;5.00;;;12.80;40.20;;;;;;5013704;28;46526;-82
2023/03/21 08:25:42;;;;;;;6.03;4.73;;;12.90;39.60;;;;;;5017974;28;48686;-82
2023/03/21 08:28:07;;;;;;;9.27;4.30;;;13.10;39.50;;;;;;5017953;28;46385;-83
2023/03/21 08:30:33;;;;;;;5.53;4.50;;;13.00;38.90;;;;;;5011248;28;46496;-80
2023/03/21 08:32:59;;;;;;;7.43;4.73;;;13.00;38.80;;;;;;5014755;28;46375;-81
2023/03/21 08:35:25;;;;;;;9.43;5.00;;;13.00;39.00;;;;;;5017579;28;46371;-80
2023/03/21 08:37:51;;;;;;;7.87;5.10;;;13.20;38.80;;;;;;5015387;28;46448;-80
2023/03/21 08:40:17;;;;;;;8.83;4.53;;;13.30;38.60;;;;;;5023207;28;45814;-84
2023/03/21 08:42:45;;;;;;;8.57;4.60;;;13.30;38.70;;;;;;5022219;28;45914;-81
2023/03/21 08:45:12;;;;;;;6.73;4.33;;;13.40;38.30;;;;;;5013218;28;47158;-79
2023/03/21 08:47:38;;;;;;;8.00;4.37;;;13.50;37.80;;;;;;5010979;28;46342;-81
2023/03/21 08:50:07;;;;;;;7.20;4.40;;;13.60;37.20;;;;;;5016961;28;46350;-82
2023/03/21 08:52:32;;;;;;;8.10;4.33;;;13.70;36.90;;;;;;5012694;28;45980;-84
2023/03/21 08:54:58;;;;;;;8.43;3.60;;;13.90;36.40;;;;;;5017226;28;46661;-81
2023/03/21 08:57:24;;;;;;;5.37;3.20;;;14.00;35.80;;;;;;5016136;28;46570;-81
2023/03/21 08:59:50;;;;;;;8.60;3.10;;;14.10;35.30;;;;;;5015348;28;46706;-83
2023/03/21 09:02:16;;;;;;;5.33;3.40;;;14.30;34.40;;;;;;5015100;28;46433;-82
2023/03/21 09:04:43;;;;;;;6.90;3.67;;;14.40;33.80;;;;;;5015692;28;46359;-79
2023/03/21 09:07:11;;;;;;;10.90;5.23;;;14.60;33.50;;;;;;5016081;28;45881;-85
2023/03/21 09:09:37;;;;;;;8.30;4.40;;;14.70;33.30;;;;;;5015023;28;46475;-82
2023/03/21 09:12:03;;;;;;;8.93;3.70;;;15.00;32.70;;;;;;5028675;28;46542;-79
2023/03/21 09:14:29;;;;;;;5.10;3.20;;;15.20;31.10;;;;;;5016533;28;46841;-83
2023/03/21 09:16:55;;;;;;;5.67;3.50;;;15.20;30.80;;;;;;5018327;28;46917;-79
2023/03/21 09:19:20;;;;;;;4.23;3.03;;;15.30;30.20;;;;;;5013753;28;46513;-79
2023/03/21 09:21:46;;;;;;;6.57;3.40;;;15.40;29.90;;;;;;5016093;28;46416;-81
2023/03/21 09:24:14;;;;;;;6.20;3.17;;;15.40;28.90;;;;;;5010444;28;48640;-82
2023/03/21 09:26:40;;;;;;;9.13;3.63;;;15.50;28.70;;;;;;5020326;28;46837;-79
2023/03/21 09:29:06;;;;;;;5.27;3.07;;;15.70;28.50;;;;;;5012176;28;46376;-80
2023/03/21 09:31:32;;;;;;;6.87;2.90;;;15.50;28.00;;;;;;5011399;28;46500;-81
2023/03/21 09:33:58;;;;;;;4.77;3.47;;;15.50;27.80;;;;;;5012555;28;47080;-79
2023/03/21 09:36:26;;;;;;;4.90;2.97;;;15.50;27.30;;;;;;5040285;28;46090;-81
2023/03/21 09:38:52;;;;;;;5.57;2.83;;;15.70;26.90;;;;;;5014091;28;46438;-82
2023/03/21 09:41:23;;;;;;;5.27;2.90;;;15.50;26.20;;;;;;5013565;28;46509;-83
2023/03/21 09:44:10;;;;;;;5.23;2.93;;;15.60;26.60;;;;;;5010545;28;46573;-80
2023/03/21 09:46:50;;;;;;;5.50;2.53;;;15.80;25.90;;;;;;5013146;28;46691;-80
2023/03/21 09:49:24;;;;;;;4.53;2.70;;;15.70;25.10;;;;;;5012390;28;46540;-80
2023/03/21 09:51:53;;;;;;;6.40;2.97;;;15.80;25.40;;;;;;5014436;28;46426;-78
2023/03/21 09:54:32;;;;;;;4.73;2.97;;;15.90;25.40;;;;;;5011810;28;46123;-81
2023/03/21 09:57:04;;;;;;;5.53;2.90;;;16.00;25.10;;;;;;5023440;28;47099;-81
2023/03/21 09:59:40;;;;;;;6.20;2.77;;;16.10;24.60;;;;;;5016440;28;46287;-79
2023/03/21 10:02:37;;;;;;;4.50;2.90;;;16.30;24.60;;;;;;5014019;28;46741;-78
2023/03/21 10:05:12;;;;;;;6.23;3.37;;;16.30;24.50;;;;;;5017802;28;46561;-78
2023/03/21 10:07:51;;;;;;;6.83;2.97;;;16.20;23.80;;;;;;5045592;28;46498;-78
2023/03/21 10:10:23;;;;;;;4.97;2.80;;;16.20;23.10;;;;;;5013457;28;46447;-79
2023/03/21 10:12:51;;;;;;;4.70;2.83;;;16.20;23.60;;;;;;5045014;28;46323;-79
2023/03/21 10:15:20;;;;;;;4.53;3.03;;;16.30;23.30;;;;;;5015350;28;46135;-78
2023/03/21 10:17:54;;;;;;;3.47;2.50;;;16.40;22.90;;;;;;5015094;28;46376;-78
2023/03/21 10:20:26;;;;;;;6.10;2.67;;;16.60;23.10;;;;;;5011503;28;45783;-78
2023/03/21 10:22:54;;;;;;;5.33;2.90;;;16.70;22.30;;;;;;5013809;28;46470;-79
2023/03/21 10:25:25;;;;;;;7.57;2.60;;;16.70;22.60;;;;;;5014059;28;47848;-78
2023/03/21 10:27:51;;;;;;;5.30;2.90;;;16.60;21.60;;;;;;5019725;28;45896;-78
2023/03/21 10:30:28;;;;;;;3.80;2.40;;;16.50;22.20;;;;;;5012074;28;46776;-79
2023/03/21 10:32:57;;;;;;;5.30;3.07;;;16.60;22.40;;;;;;5015089;28;46407;-81
2023/03/21 10:35:23;;;;;;;5.93;2.93;;;16.80;21.80;;;;;;5016203;28;48421;-79
2023/03/21 10:37:49;;;;;;;7.80;3.53;;;17.00;21.90;;;;;;5019057;28;46959;-81
2023/03/21 10:40:16;;;;;;;5.80;3.77;;;17.30;21.70;;;;;;5019427;28;46445;-79
2023/03/21 10:42:43;;;;;;;10.23;3.33;;;17.50;22.40;;;;;;5013266;28;46379;-77
2023/03/21 10:45:19;;;;;;;5.00;3.00;;;17.80;20.90;;;;;;5012962;28;47277;-79
2023/03/21 10:47:48;;;;;;;5.40;3.53;;;17.90;20.90;;;;;;5012221;28;46559;-79
2023/03/21 10:50:16;;;;;;;5.63;3.07;;;17.90;20.90;;;;;;5017007;28;46430;-79
2023/03/21 10:52:48;;;;;;;5.40;3.43;;;18.10;21.10;;;;;;5011115;28;46534;-80
2023/03/21 10:55:27;;;;;;;5.60;3.43;;;18.10;20.50;;;;;;5018018;28;46383;-80
2023/03/21 10:58:01;;;;;;;7.77;3.60;;;18.10;19.90;;;;;;5014212;28;46491;-79
2023/03/21 11:00:37;;;;;;;14.53;5.37;;;17.90;19.80;;;;;;5009892;28;47598;-79
2023/03/21 11:03:04;;;;;;;7.63;3.10;;;18.00;19.50;;;;;;5013148;28;46617;-81
2023/03/21 11:05:52;;;;;;;7.13;3.50;;;17.80;19.10;;;;;;5013557;28;46177;-78
2023/03/21 11:08:18;;;;;;;5.13;3.20;;;17.90;19.30;;;;;;5013786;28;46550;-80
2023/03/21 11:11:05;;;;;;;8.57;3.70;;;18.00;19.30;;;;;;5012654;28;46306;-78
2023/03/21 11:13:40;;;;;;;5.97;3.93;;;18.10;18.80;;;;;;5007742;28;46844;-79
2023/03/21 11:16:17;;;;;;;7.33;4.17;;;18.30;18.90;;;;;;5010401;28;46939;-78
2023/03/21 11:18:48;;;;;;;8.90;4.00;;;18.30;18.60;;;;;;5008483;28;46538;-78
2023/03/21 11:21:14;;;;;;;6.30;3.80;;;18.30;18.80;;;;;;5010638;28;47019;-78
2023/03/21 11:23:46;;;;;;;7.03;3.97;;;18.40;18.80;;;;;;5012059;28;46412;-79
2023/03/21 11:26:29;;;;;;;19.27;6.47;;;18.50;18.60;;;;;;5011374;28;46416;-79
2023/03/21 11:28:54;;;;;;;7.53;4.13;;;18.60;18.60;;;;;;5012518;28;46601;-79
2023/03/21 11:31:23;;;;;;;17.97;4.77;;;18.70;18.60;;;;;;5009716;28;46491;-79
2023/03/21 11:34:00;;;;;;;5.60;3.80;;;18.50;18.20;;;;;;5009501;28;46864;-79
2023/03/21 11:36:32;;;;;;;8.43;4.67;;;18.40;18.50;;;;;;5013628;28;46611;-79
2023/03/21 11:39:12;;;;;;;6.77;4.37;;;18.70;18.30;;;;;;5012874;28;46922;-79
2023/03/21 11:41:40;;;;;;;7.93;4.07;;;18.60;17.80;;;;;;5007563;28;46399;-78
2023/03/21 11:44:22;;;;;;;8.23;4.50;;;18.50;17.90;;;;;;5009228;28;46423;-80
2023/03/21 11:46:47;;;;;;;6.83;3.90;;;18.40;18.10;;;;;;5015558;28;46526;-80
2023/03/21 11:49:13;;;;;;;7.80;4.60;;;18.70;18.00;;;;;;5010665;28;46494;-79
2023/03/21 11:51:58;;;;;;;9.23;3.80;;;18.80;17.20;;;;;;5011827;28;46431;-80
2023/03/21 11:54:40;;;;;;;10.53;4.90;;;18.70;17.50;;;;;;5010766;28;46639;-79
2023/03/21 11:57:19;;;;;;;9.27;5.03;;;18.60;17.30;;;;;;5009325;28;48308;-81
2023/03/21 11:59:54;;;;;;;7.33;4.57;;;18.50;17.30;;;;;;5014872;28;46402;-76
2023/03/21 12:02:30;;;;;;;7.63;4.63;;;18.70;17.70;;;;;;5013104;28;46476;-78
2023/03/21 12:05:03;;;;;;;9.13;4.37;;;18.90;17.20;;;;;;5009561;28;46520;-78
2023/03/21 12:07:44;;;;;;;8.03;4.20;;;19.10;17.40;;;;;;5016264;28;47719;-80
2023/03/21 12:10:33;;;;;;;9.33;3.60;;;19.00;18.10;;;;;;5017398;28;46465;-79
2023/03/21 12:13:01;;;;;;;10.80;3.93;;;18.90;17.10;;;;;;5012083;28;46398;-77
2023/03/21 12:15:35;;;;;;;4.57;3.17;;;18.90;17.50;;;;;;5014720;28;46600;-79
2023/03/21 12:18:38;;;;;;;5.60;3.60;;;18.80;17.60;;;;;;5015422;28;46639;-78
2023/03/21 12:21:17;;;;;;;7.63;3.93;;;18.70;17.70;;;;;;5013161;28;46439;-79
2023/03/21 12:24:01;;;;;;;6.97;4.07;;;18.60;17.90;;;;;;5018681;28;46715;-77
2023/03/21 12:26:35;;;;;;;6.83;3.90;;;18.60;17.80;;;;;;5044567;28;46451;-79
2023/03/21 12:29:21;;;;;;;5.17;3.53;;;18.70;18.10;;;;;;5010930;28;46449;-81
2023/03/21 12:31:56;;;;;;;7.77;4.60;;;18.70;17.90;;;;;;5014767;28;46556;-78
2023/03/21 12:34:42;;;;;;;8.47;4.37;;;18.80;17.90;;;;;;5015586;28;46437;-79
2023/03/21 12:37:28;;;;;;;9.50;4.80;;;18.80;17.70;;;;;;5010185;28;46491;-78
2023/03/21 12:40:06;;;;;;;6.50;4.53;;;19.00;17.30;;;;;;5015028;28;47195;-78
2023/03/21 12:43:06;;;;;;;9.10;4.70;;;18.80;17.70;;;;;;5015063;28;46669;-81
2023/03/21 12:45:37;;;;;;;7.23;4.47;;;18.90;17.80;;;;;;5014512;28;46406;-78
2023/03/21 12:48:37;;;;;;;8.60;4.53;;;18.80;18.00;;;;;;5015175;28;46485;-80
2023/03/21 12:51:06;;;;;;;6.30;4.27;;;18.40;18.10;;;;;;5003173;28;48137;-80
2023/03/21 12:53:51;;;;;;;6.43;4.27;;;18.20;18.50;;;;;;5016595;28;46650;-80
2023/03/21 12:56:35;;;;;;;9.20;5.20;;;17.70;18.90;;;;;;5014970;28;46984;-78
2023/03/21 12:59:19;;;;;;;8.93;5.53;;;17.60;19.20;;;;;;5017721;28;46475;-78
2023/03/21 13:01:46;;;;;;;9.20;5.30;;;17.60;19.20;;;;;;5015371;28;46486;-77
2023/03/21 13:04:47;;;;;;;8.10;4.80;;;17.70;19.20;;;;;;5014970;28;46428;-77
2023/03/21 13:07:18;;;;;;;9.07;5.40;;;17.70;19.10;;;;;;5005191;28;46611;-79